KSBD/SBD METAR and TAF weather

Enter ICAO airport designator
Station Type Date Time Source
KSBD METAR 2020/02/25 12:40 UTC NOAA

KSBD 251240Z AUTO 06004KT 10SM CLR 10/01 A3017 RMK AO2 T00960006


Station Type Date Time Source
KSBD Decoded METAR 2020/02/25 12:40 UTC NOAA

Norton Air Force Base / San Bern, CA, United States (KSBD) 34-06N 117-14W
Feb 25, 2020 - 07:40 AM EST / 2020.02.25 1240 UTC
Wind: from the ENE (060 degrees) at 5 MPH (4 KT):0
Visibility: 10 mile(s):0
Sky conditions: clear
Temperature: 49.3 F (9.6 C)
Dew Point: 33.1 F (0.6 C)
Relative Humidity: 53%
Pressure (altimeter): 30.17 in. Hg (1021 hPa)
ob: KSBD 251240Z AUTO 06004KT 10SM CLR 10/01 A3017 RMK AO2 T00960006
cycle: 12

Station Type Date Time Source
KSBD TAF 2020/02/25 12:40 UTC NOAA

TAF KSBD 251134Z 2512/2612 VRB04KT P6SM SKC
FM251800 04020G33KT P6SM SKC
FM252300 04012KT P6SM SKC
FM260500 VRB04KT P6SM SKC

Example: see airport list